sensor_id;sensor_type;location;lat;lon;timestamp;P1;durP1;ratioP1;P2;durP2;ratioP2
47519;SDS011;33252;48.122;11.538;2022-12-29T00:02:10;1.33;;;0.60;;
47519;SDS011;33252;48.122;11.538;2022-12-29T00:04:35;1.63;;;0.93;;
47519;SDS011;33252;48.122;11.538;2022-12-29T00:07:01;2.17;;;0.98;;
47519;SDS011;33252;48.122;11.538;2022-12-29T00:09:29;1.45;;;0.75;;
47519;SDS011;33252;48.122;11.538;2022-12-29T00:11:55;1.92;;;0.80;;
47519;SDS011;33252;48.122;11.538;2022-12-29T00:14:21;0.70;;;0.47;;
47519;SDS011;33252;48.122;11.538;2022-12-29T00:17:05;1.52;;;0.50;;
47519;SDS011;33252;48.122;11.538;2022-12-29T00:19:31;1.48;;;0.57;;
47519;SDS011;33252;48.122;11.538;2022-12-29T00:22:15;1.75;;;0.68;;
47519;SDS011;33252;48.122;11.538;2022-12-29T00:24:59;2.00;;;0.60;;
47519;SDS011;33252;48.122;11.538;2022-12-29T00:27:34;1.48;;;0.57;;
47519;SDS011;33252;48.122;11.538;2022-12-29T00:30:20;1.58;;;0.70;;
47519;SDS011;33252;48.122;11.538;2022-12-29T00:33:12;1.75;;;0.68;;
47519;SDS011;33252;48.122;11.538;2022-12-29T00:36:00;1.77;;;0.45;;
47519;SDS011;33252;48.122;11.538;2022-12-29T00:38:32;1.73;;;0.70;;
47519;SDS011;33252;48.122;11.538;2022-12-29T00:41:19;1.67;;;0.57;;
47519;SDS011;33252;48.122;11.538;2022-12-29T00:44:03;1.50;;;0.40;;
47519;SDS011;33252;48.122;11.538;2022-12-29T00:46:30;0.75;;;0.40;;
47519;SDS011;33252;48.122;11.538;2022-12-29T00:48:57;1.25;;;0.38;;
47519;SDS011;33252;48.122;11.538;2022-12-29T00:51:41;0.90;;;0.30;;
47519;SDS011;33252;48.122;11.538;2022-12-29T00:54:07;1.38;;;0.40;;
47519;SDS011;33252;48.122;11.538;2022-12-29T00:56:33;0.73;;;0.50;;
47519;SDS011;33252;48.122;11.538;2022-12-29T00:59:00;1.50;;;0.52;;
47519;SDS011;33252;48.122;11.538;2022-12-29T01:01:26;1.02;;;0.35;;
47519;SDS011;33252;48.122;11.538;2022-12-29T01:03:52;1.48;;;0.47;;
47519;SDS011;33252;48.122;11.538;2022-12-29T01:06:17;1.05;;;0.40;;
47519;SDS011;33252;48.122;11.538;2022-12-29T01:08:43;1.05;;;0.40;;
47519;SDS011;33252;48.122;11.538;2022-12-29T01:11:10;1.17;;;0.47;;
47519;SDS011;33252;48.122;11.538;2022-12-29T01:13:36;0.63;;;0.35;;
47519;SDS011;33252;48.122;11.538;2022-12-29T01:16:03;0.50;;;0.30;;
47519;SDS011;33252;48.122;11.538;2022-12-29T01:18:30;1.48;;;0.60;;
47519;SDS011;33252;48.122;11.538;2022-12-29T01:21:03;1.38;;;0.60;;
47519;SDS011;33252;48.122;11.538;2022-12-29T01:23:30;1.45;;;0.43;;
47519;SDS011;33252;48.122;11.538;2022-12-29T01:25:57;1.75;;;0.85;;
47519;SDS011;33252;48.122;11.538;2022-12-29T01:28:32;0.57;;;0.30;;
47519;SDS011;33252;48.122;11.538;2022-12-29T01:30:59;0.95;;;0.47;;
47519;SDS011;33252;48.122;11.538;2022-12-29T01:33:25;0.82;;;0.30;;
47519;SDS011;33252;48.122;11.538;2022-12-29T01:35:51;1.70;;;0.40;;
47519;SDS011;33252;48.122;11.538;2022-12-29T01:38:17;3.00;;;0.50;;
47519;SDS011;33252;48.122;11.538;2022-12-29T01:40:43;0.65;;;0.50;;
47519;SDS011;33252;48.122;11.538;2022-12-29T01:43:10;1.02;;;0.40;;
47519;SDS011;33252;48.122;11.538;2022-12-29T01:45:39;1.48;;;0.35;;
47519;SDS011;33252;48.122;11.538;2022-12-29T01:48:10;0.95;;;0.45;;
47519;SDS011;33252;48.122;11.538;2022-12-29T01:50:39;2.67;;;0.60;;
47519;SDS011;33252;48.122;11.538;2022-12-29T01:53:09;1.60;;;0.57;;
47519;SDS011;33252;48.122;11.538;2022-12-29T01:55:42;0.73;;;0.35;;
47519;SDS011;33252;48.122;11.538;2022-12-29T01:58:10;1.00;;;0.50;;
47519;SDS011;33252;48.122;11.538;2022-12-29T02:00:38;1.83;;;0.60;;
47519;SDS011;33252;48.122;11.538;2022-12-29T02:03:04;1.77;;;0.40;;
47519;SDS011;33252;48.122;11.538;2022-12-29T02:05:38;0.93;;;0.32;;
47519;SDS011;33252;48.122;11.538;2022-12-29T02:08:13;0.68;;;0.40;;
47519;SDS011;33252;48.122;11.538;2022-12-29T02:10:39;0.60;;;0.32;;
47519;SDS011;33252;48.122;11.538;2022-12-29T02:13:07;1.58;;;0.45;;
47519;SDS011;33252;48.122;11.538;2022-12-29T02:18:45;0.70;;;0.30;;
47519;SDS011;33252;48.122;11.538;2022-12-29T02:32:02;1.23;;;0.45;;
47519;SDS011;33252;48.122;11.538;2022-12-29T02:40:48;0.70;;;0.40;;
47519;SDS011;33252;48.122;11.538;2022-12-29T02:49:20;0.98;;;0.45;;
47519;SDS011;33252;48.122;11.538;2022-12-29T02:51:55;0.73;;;0.22;;
47519;SDS011;33252;48.122;11.538;2022-12-29T02:57:11;0.85;;;0.22;;
47519;SDS011;33252;48.122;11.538;2022-12-29T02:59:53;0.70;;;0.30;;
47519;SDS011;33252;48.122;11.538;2022-12-29T03:08:22;0.85;;;0.40;;
47519;SDS011;33252;48.122;11.538;2022-12-29T03:11:09;1.63;;;0.55;;
47519;SDS011;33252;48.122;11.538;2022-12-29T03:14:17;1.48;;;0.40;;
47519;SDS011;33252;48.122;11.538;2022-12-29T03:17:12;2.03;;;0.47;;
47519;SDS011;33252;48.122;11.538;2022-12-29T03:19:49;1.35;;;0.40;;
47519;SDS011;33252;48.122;11.538;2022-12-29T03:22:25;1.50;;;0.65;;
47519;SDS011;33252;48.122;11.538;2022-12-29T03:25:03;0.95;;;0.40;;
47519;SDS011;33252;48.122;11.538;2022-12-29T03:27:39;1.30;;;0.50;;
47519;SDS011;33252;48.122;11.538;2022-12-29T03:30:09;0.93;;;0.50;;
47519;SDS011;33252;48.122;11.538;2022-12-29T03:32:42;1.48;;;0.63;;
47519;SDS011;33252;48.122;11.538;2022-12-29T03:35:11;1.15;;;0.50;;
47519;SDS011;33252;48.122;11.538;2022-12-29T03:38:31;0.90;;;0.60;;
47519;SDS011;33252;48.122;11.538;2022-12-29T03:40:36;0.73;;;0.30;;
47519;SDS011;33252;48.122;11.538;2022-12-29T03:43:05;1.63;;;0.40;;
47519;SDS011;33252;48.122;11.538;2022-12-29T03:45:31;1.17;;;0.43;;
47519;SDS011;33252;48.122;11.538;2022-12-29T03:47:57;1.63;;;0.40;;
47519;SDS011;33252;48.122;11.538;2022-12-29T03:50:22;1.35;;;0.38;;
47519;SDS011;33252;48.122;11.538;2022-12-29T03:52:49;0.60;;;0.43;;
47519;SDS011;33252;48.122;11.538;2022-12-29T03:55:15;1.23;;;0.60;;
47519;SDS011;33252;48.122;11.538;2022-12-29T03:57:40;0.90;;;0.40;;
47519;SDS011;33252;48.122;11.538;2022-12-29T04:00:09;2.58;;;0.52;;
47519;SDS011;33252;48.122;11.538;2022-12-29T04:02:35;1.50;;;0.50;;
47519;SDS011;33252;48.122;11.538;2022-12-29T04:05:01;2.10;;;0.57;;
47519;SDS011;33252;48.122;11.538;2022-12-29T04:07:27;0.75;;;0.47;;
47519;SDS011;33252;48.122;11.538;2022-12-29T04:09:52;2.85;;;0.47;;
47519;SDS011;33252;48.122;11.538;2022-12-29T04:12:18;0.60;;;0.30;;
47519;SDS011;33252;48.122;11.538;2022-12-29T04:14:43;1.65;;;0.30;;
47519;SDS011;33252;48.122;11.538;2022-12-29T04:17:09;2.38;;;0.30;;
47519;SDS011;33252;48.122;11.538;2022-12-29T04:19:35;0.70;;;0.50;;
47519;SDS011;33252;48.122;11.538;2022-12-29T04:22:00;1.05;;;0.40;;
47519;SDS011;33252;48.122;11.538;2022-12-29T04:24:26;2.30;;;0.60;;
47519;SDS011;33252;48.122;11.538;2022-12-29T04:26:52;1.30;;;0.40;;
47519;SDS011;33252;48.122;11.538;2022-12-29T04:29:17;1.10;;;0.50;;
47519;SDS011;33252;48.122;11.538;2022-12-29T04:31:43;1.17;;;0.50;;
47519;SDS011;33252;48.122;11.538;2022-12-29T04:34:08;2.88;;;0.55;;
47519;SDS011;33252;48.122;11.538;2022-12-29T04:36:34;2.63;;;0.60;;
47519;SDS011;33252;48.122;11.538;2022-12-29T04:39:00;0.65;;;0.35;;
47519;SDS011;33252;48.122;11.538;2022-12-29T04:41:26;1.42;;;0.50;;
47519;SDS011;33252;48.122;11.538;2022-12-29T04:43:51;0.85;;;0.40;;
47519;SDS011;33252;48.122;11.538;2022-12-29T04:46:17;0.50;;;0.30;;
47519;SDS011;33252;48.122;11.538;2022-12-29T04:48:43;1.45;;;0.40;;
47519;SDS011;33252;48.122;11.538;2022-12-29T04:51:08;0.60;;;0.30;;
47519;SDS011;33252;48.122;11.538;2022-12-29T04:53:34;0.80;;;0.50;;
47519;SDS011;33252;48.122;11.538;2022-12-29T04:55:59;0.63;;;0.50;;
47519;SDS011;33252;48.122;11.538;2022-12-29T04:58:25;0.60;;;0.40;;
47519;SDS011;33252;48.122;11.538;2022-12-29T05:00:51;1.27;;;0.65;;
47519;SDS011;33252;48.122;11.538;2022-12-29T05:03:17;0.75;;;0.60;;
47519;SDS011;33252;48.122;11.538;2022-12-29T05:05:43;1.55;;;0.82;;
47519;SDS011;33252;48.122;11.538;2022-12-29T05:08:09;1.05;;;0.40;;
47519;SDS011;33252;48.122;11.538;2022-12-29T05:10:34;1.00;;;0.50;;
47519;SDS011;33252;48.122;11.538;2022-12-29T05:13:00;1.58;;;0.50;;
47519;SDS011;33252;48.122;11.538;2022-12-29T05:15:26;2.80;;;0.60;;
47519;SDS011;33252;48.122;11.538;2022-12-29T05:17:51;1.15;;;0.50;;
47519;SDS011;33252;48.122;11.538;2022-12-29T05:20:17;0.52;;;0.30;;
47519;SDS011;33252;48.122;11.538;2022-12-29T05:22:43;2.47;;;0.50;;
47519;SDS011;33252;48.122;11.538;2022-12-29T05:25:09;2.03;;;0.77;;
47519;SDS011;33252;48.122;11.538;2022-12-29T05:27:35;1.15;;;0.40;;
47519;SDS011;33252;48.122;11.538;2022-12-29T05:30:00;1.15;;;0.57;;
47519;SDS011;33252;48.122;11.538;2022-12-29T05:32:26;0.55;;;0.50;;
47519;SDS011;33252;48.122;11.538;2022-12-29T05:34:52;1.38;;;0.50;;
47519;SDS011;33252;48.122;11.538;2022-12-29T05:37:17;0.88;;;0.50;;
47519;SDS011;33252;48.122;11.538;2022-12-29T05:39:43;1.48;;;0.40;;
47519;SDS011;33252;48.122;11.538;2022-12-29T05:42:09;0.65;;;0.40;;
47519;SDS011;33252;48.122;11.538;2022-12-29T05:44:35;1.92;;;0.40;;
47519;SDS011;33252;48.122;11.538;2022-12-29T05:47:00;2.63;;;0.40;;
47519;SDS011;33252;48.122;11.538;2022-12-29T05:49:26;0.93;;;0.50;;
47519;SDS011;33252;48.122;11.538;2022-12-29T05:51:51;2.83;;;1.13;;
47519;SDS011;33252;48.122;11.538;2022-12-29T05:54:17;0.90;;;0.50;;
47519;SDS011;33252;48.122;11.538;2022-12-29T05:56:43;6.35;;;2.00;;
47519;SDS011;33252;48.122;11.538;2022-12-29T05:59:08;4.75;;;2.00;;
47519;SDS011;33252;48.122;11.538;2022-12-29T06:01:37;3.65;;;0.98;;
47519;SDS011;33252;48.122;11.538;2022-12-29T06:04:02;4.95;;;1.30;;
47519;SDS011;33252;48.122;11.538;2022-12-29T06:06:28;4.57;;;1.30;;
47519;SDS011;33252;48.122;11.538;2022-12-29T06:08:54;2.03;;;0.70;;
47519;SDS011;33252;48.122;11.538;2022-12-29T06:11:19;2.05;;;0.70;;
47519;SDS011;33252;48.122;11.538;2022-12-29T06:13:45;2.65;;;0.82;;
47519;SDS011;33252;48.122;11.538;2022-12-29T06:16:11;0.70;;;0.40;;
47519;SDS011;33252;48.122;11.538;2022-12-29T06:18:37;3.60;;;0.90;;
47519;SDS011;33252;48.122;11.538;2022-12-29T06:21:03;1.42;;;0.60;;
47519;SDS011;33252;48.122;11.538;2022-12-29T06:23:30;2.35;;;0.70;;
47519;SDS011;33252;48.122;11.538;2022-12-29T06:25:56;1.08;;;0.57;;
47519;SDS011;33252;48.122;11.538;2022-12-29T06:28:22;1.50;;;0.50;;
47519;SDS011;33252;48.122;11.538;2022-12-29T06:30:48;1.85;;;0.60;;
47519;SDS011;33252;48.122;11.538;2022-12-29T06:33:14;1.55;;;0.80;;
47519;SDS011;33252;48.122;11.538;2022-12-29T06:35:41;2.78;;;0.77;;
47519;SDS011;33252;48.122;11.538;2022-12-29T06:38:07;1.33;;;0.47;;
47519;SDS011;33252;48.122;11.538;2022-12-29T06:40:33;1.60;;;0.60;;
47519;SDS011;33252;48.122;11.538;2022-12-29T06:42:59;2.28;;;0.60;;
47519;SDS011;33252;48.122;11.538;2022-12-29T06:45:27;2.00;;;0.50;;
47519;SDS011;33252;48.122;11.538;2022-12-29T06:47:53;1.00;;;0.63;;
47519;SDS011;33252;48.122;11.538;2022-12-29T06:50:18;1.55;;;0.70;;
47519;SDS011;33252;48.122;11.538;2022-12-29T06:52:44;1.10;;;0.50;;
47519;SDS011;33252;48.122;11.538;2022-12-29T06:55:10;1.70;;;0.65;;
47519;SDS011;33252;48.122;11.538;2022-12-29T06:57:35;2.45;;;0.50;;
47519;SDS011;33252;48.122;11.538;2022-12-29T07:00:02;2.40;;;0.50;;
47519;SDS011;33252;48.122;11.538;2022-12-29T07:02:29;1.30;;;0.60;;
47519;SDS011;33252;48.122;11.538;2022-12-29T07:04:55;0.70;;;0.40;;
47519;SDS011;33252;48.122;11.538;2022-12-29T07:07:21;1.23;;;0.60;;
47519;SDS011;33252;48.122;11.538;2022-12-29T07:09:46;1.65;;;0.63;;
47519;SDS011;33252;48.122;11.538;2022-12-29T07:12:12;2.67;;;0.70;;
47519;SDS011;33252;48.122;11.538;2022-12-29T07:14:38;1.58;;;0.80;;
47519;SDS011;33252;48.122;11.538;2022-12-29T07:17:04;1.38;;;0.55;;
47519;SDS011;33252;48.122;11.538;2022-12-29T07:19:31;0.98;;;0.50;;
47519;SDS011;33252;48.122;11.538;2022-12-29T07:21:57;1.13;;;0.57;;
47519;SDS011;33252;48.122;11.538;2022-12-29T07:24:23;2.60;;;0.43;;
47519;SDS011;33252;48.122;11.538;2022-12-29T07:26:50;1.35;;;0.70;;
47519;SDS011;33252;48.122;11.538;2022-12-29T07:29:16;3.53;;;1.00;;
47519;SDS011;33252;48.122;11.538;2022-12-29T07:31:42;1.65;;;1.13;;
47519;SDS011;33252;48.122;11.538;2022-12-29T07:34:08;2.17;;;0.82;;
47519;SDS011;33252;48.122;11.538;2022-12-29T07:36:33;1.90;;;0.70;;
47519;SDS011;33252;48.122;11.538;2022-12-29T07:38:59;0.77;;;0.47;;
47519;SDS011;33252;48.122;11.538;2022-12-29T07:41:25;2.97;;;0.65;;
47519;SDS011;33252;48.122;11.538;2022-12-29T07:43:50;1.75;;;0.93;;
47519;SDS011;33252;48.122;11.538;2022-12-29T07:46:16;1.35;;;0.52;;
47519;SDS011;33252;48.122;11.538;2022-12-29T07:48:41;3.38;;;0.80;;
47519;SDS011;33252;48.122;11.538;2022-12-29T07:51:07;1.83;;;1.00;;
47519;SDS011;33252;48.122;11.538;2022-12-29T07:53:33;1.20;;;0.68;;
47519;SDS011;33252;48.122;11.538;2022-12-29T07:55:58;2.47;;;0.90;;
47519;SDS011;33252;48.122;11.538;2022-12-29T07:58:24;2.15;;;0.82;;
47519;SDS011;33252;48.122;11.538;2022-12-29T08:00:56;1.10;;;0.38;;
47519;SDS011;33252;48.122;11.538;2022-12-29T08:03:22;2.60;;;0.70;;
47519;SDS011;33252;48.122;11.538;2022-12-29T08:05:48;4.38;;;0.80;;
47519;SDS011;33252;48.122;11.538;2022-12-29T08:08:14;1.75;;;0.77;;
47519;SDS011;33252;48.122;11.538;2022-12-29T08:10:40;1.55;;;0.80;;
47519;SDS011;33252;48.122;11.538;2022-12-29T08:13:05;3.80;;;1.08;;
47519;SDS011;33252;48.122;11.538;2022-12-29T08:15:31;1.60;;;0.80;;
47519;SDS011;33252;48.122;11.538;2022-12-29T08:17:57;2.42;;;1.30;;
47519;SDS011;33252;48.122;11.538;2022-12-29T08:20:22;1.27;;;0.70;;
47519;SDS011;33252;48.122;11.538;2022-12-29T08:22:51;1.92;;;1.00;;
47519;SDS011;33252;48.122;11.538;2022-12-29T08:25:16;4.78;;;1.08;;
47519;SDS011;33252;48.122;11.538;2022-12-29T08:27:42;2.45;;;1.42;;
47519;SDS011;33252;48.122;11.538;2022-12-29T08:30:08;3.42;;;1.08;;
47519;SDS011;33252;48.122;11.538;2022-12-29T08:32:34;1.42;;;0.60;;
47519;SDS011;33252;48.122;11.538;2022-12-29T08:35:00;3.58;;;1.05;;
47519;SDS011;33252;48.122;11.538;2022-12-29T08:37:25;3.10;;;0.90;;
47519;SDS011;33252;48.122;11.538;2022-12-29T08:39:51;3.85;;;1.25;;
47519;SDS011;33252;48.122;11.538;2022-12-29T08:42:16;1.83;;;0.68;;
47519;SDS011;33252;48.122;11.538;2022-12-29T08:44:42;1.38;;;0.65;;
47519;SDS011;33252;48.122;11.538;2022-12-29T08:47:09;4.10;;;0.98;;
47519;SDS011;33252;48.122;11.538;2022-12-29T08:49:38;3.67;;;0.93;;
47519;SDS011;33252;48.122;11.538;2022-12-29T08:52:04;1.80;;;0.93;;
47519;SDS011;33252;48.122;11.538;2022-12-29T08:54:30;2.08;;;0.77;;
47519;SDS011;33252;48.122;11.538;2022-12-29T08:56:55;1.65;;;0.80;;
47519;SDS011;33252;48.122;11.538;2022-12-29T08:59:21;1.80;;;0.85;;
47519;SDS011;33252;48.122;11.538;2022-12-29T09:01:46;2.70;;;0.80;;
47519;SDS011;33252;48.122;11.538;2022-12-29T09:04:12;3.45;;;1.38;;
47519;SDS011;33252;48.122;11.538;2022-12-29T09:06:38;2.58;;;1.10;;
47519;SDS011;33252;48.122;11.538;2022-12-29T09:09:04;2.25;;;1.02;;
47519;SDS011;33252;48.122;11.538;2022-12-29T09:11:29;1.55;;;0.60;;
47519;SDS011;33252;48.122;11.538;2022-12-29T09:13:55;1.90;;;0.70;;
47519;SDS011;33252;48.122;11.538;2022-12-29T09:16:22;1.60;;;0.47;;
47519;SDS011;33252;48.122;11.538;2022-12-29T09:18:49;4.10;;;0.75;;
47519;SDS011;33252;48.122;11.538;2022-12-29T09:21:15;2.35;;;0.60;;
47519;SDS011;33252;48.122;11.538;2022-12-29T09:23:41;3.55;;;0.85;;
47519;SDS011;33252;48.122;11.538;2022-12-29T09:26:07;1.70;;;0.80;;
47519;SDS011;33252;48.122;11.538;2022-12-29T09:28:33;2.20;;;0.63;;
47519;SDS011;33252;48.122;11.538;2022-12-29T09:30:59;2.28;;;0.75;;
47519;SDS011;33252;48.122;11.538;2022-12-29T09:33:25;2.70;;;0.60;;
47519;SDS011;33252;48.122;11.538;2022-12-29T09:35:52;2.15;;;0.50;;
47519;SDS011;33252;48.122;11.538;2022-12-29T09:38:19;1.05;;;0.52;;
47519;SDS011;33252;48.122;11.538;2022-12-29T09:40:49;2.45;;;1.08;;
47519;SDS011;33252;48.122;11.538;2022-12-29T09:48:36;2.35;;;0.50;;
47519;SDS011;33252;48.122;11.538;2022-12-29T09:51:08;0.65;;;0.50;;
47519;SDS011;33252;48.122;11.538;2022-12-29T09:53:39;1.75;;;0.77;;
47519;SDS011;33252;48.122;11.538;2022-12-29T09:56:22;2.95;;;0.80;;
47519;SDS011;33252;48.122;11.538;2022-12-29T09:59:00;3.80;;;0.60;;
47519;SDS011;33252;48.122;11.538;2022-12-29T10:01:59;1.58;;;0.63;;
47519;SDS011;33252;48.122;11.538;2022-12-29T10:04:33;1.60;;;0.80;;
47519;SDS011;33252;48.122;11.538;2022-12-29T10:07:03;1.15;;;0.75;;
47519;SDS011;33252;48.122;11.538;2022-12-29T10:10:18;1.87;;;0.53;;
47519;SDS011;33252;48.122;11.538;2022-12-29T10:13:50;1.10;;;0.50;;
47519;SDS011;33252;48.122;11.538;2022-12-29T10:16:26;1.55;;;0.50;;
47519;SDS011;33252;48.122;11.538;2022-12-29T10:24:17;1.23;;;0.68;;
47519;SDS011;33252;48.122;11.538;2022-12-29T10:26:45;1.90;;;0.80;;
47519;SDS011;33252;48.122;11.538;2022-12-29T10:29:20;2.40;;;0.60;;
47519;SDS011;33252;48.122;11.538;2022-12-29T10:31:56;1.13;;;0.40;;
47519;SDS011;33252;48.122;11.538;2022-12-29T10:34:37;1.70;;;0.80;;
47519;SDS011;33252;48.122;11.538;2022-12-29T10:39:52;1.73;;;0.85;;
47519;SDS011;33252;48.122;11.538;2022-12-29T10:45:10;2.33;;;0.82;;
47519;SDS011;33252;48.122;11.538;2022-12-29T10:47:41;2.00;;;0.77;;
47519;SDS011;33252;48.122;11.538;2022-12-29T10:50:16;0.98;;;0.52;;
47519;SDS011;33252;48.122;11.538;2022-12-29T10:52:42;4.25;;;0.70;;
47519;SDS011;33252;48.122;11.538;2022-12-29T10:55:19;3.42;;;0.60;;
47519;SDS011;33252;48.122;11.538;2022-12-29T10:57:48;1.83;;;0.90;;
47519;SDS011;33252;48.122;11.538;2022-12-29T11:00:18;3.15;;;1.40;;
47519;SDS011;33252;48.122;11.538;2022-12-29T11:08:21;2.50;;;0.80;;
47519;SDS011;33252;48.122;11.538;2022-12-29T11:11:01;0.95;;;0.73;;
47519;SDS011;33252;48.122;11.538;2022-12-29T11:13:33;1.55;;;1.00;;
47519;SDS011;33252;48.122;11.538;2022-12-29T11:16:00;1.10;;;0.73;;
47519;SDS011;33252;48.122;11.538;2022-12-29T11:18:37;2.42;;;0.70;;
47519;SDS011;33252;48.122;11.538;2022-12-29T11:21:23;2.53;;;0.60;;
47519;SDS011;33252;48.122;11.538;2022-12-29T11:23:57;2.35;;;0.80;;
47519;SDS011;33252;48.122;11.538;2022-12-29T11:26:24;4.78;;;0.75;;
47519;SDS011;33252;48.122;11.538;2022-12-29T11:29:05;0.93;;;0.50;;
47519;SDS011;33252;48.122;11.538;2022-12-29T11:31:48;2.35;;;0.57;;
47519;SDS011;33252;48.122;11.538;2022-12-29T11:34:26;2.95;;;0.50;;
47519;SDS011;33252;48.122;11.538;2022-12-29T11:37:00;1.35;;;0.60;;
47519;SDS011;33252;48.122;11.538;2022-12-29T11:39:39;1.15;;;0.63;;
47519;SDS011;33252;48.122;11.538;2022-12-29T11:42:11;2.63;;;0.60;;
47519;SDS011;33252;48.122;11.538;2022-12-29T11:44:41;1.95;;;0.60;;
47519;SDS011;33252;48.122;11.538;2022-12-29T11:47:22;3.20;;;0.65;;
47519;SDS011;33252;48.122;11.538;2022-12-29T11:49:55;1.42;;;0.60;;
47519;SDS011;33252;48.122;11.538;2022-12-29T11:52:24;1.88;;;0.60;;
47519;SDS011;33252;48.122;11.538;2022-12-29T11:54:53;1.17;;;0.80;;
47519;SDS011;33252;48.122;11.538;2022-12-29T11:57:21;1.58;;;0.70;;
47519;SDS011;33252;48.122;11.538;2022-12-29T12:05:09;1.15;;;0.60;;
47519;SDS011;33252;48.122;11.538;2022-12-29T12:07:52;2.65;;;0.70;;
47519;SDS011;33252;48.122;11.538;2022-12-29T12:10:30;1.95;;;0.60;;
47519;SDS011;33252;48.122;11.538;2022-12-29T12:13:37;1.00;;;0.40;;
47519;SDS011;33252;48.122;11.538;2022-12-29T12:16:13;1.50;;;0.60;;
47519;SDS011;33252;48.122;11.538;2022-12-29T12:26:53;2.08;;;0.55;;
47519;SDS011;33252;48.122;11.538;2022-12-29T12:29:28;2.38;;;0.63;;
47519;SDS011;33252;48.122;11.538;2022-12-29T12:32:10;1.30;;;0.43;;
47519;SDS011;33252;48.122;11.538;2022-12-29T12:34:50;0.77;;;0.30;;
47519;SDS011;33252;48.122;11.538;2022-12-29T12:42:54;0.73;;;0.50;;
47519;SDS011;33252;48.122;11.538;2022-12-29T13:00:23;2.22;;;0.40;;
47519;SDS011;33252;48.122;11.538;2022-12-29T13:03:08;0.88;;;0.40;;
47519;SDS011;33252;48.122;11.538;2022-12-29T13:09:00;1.35;;;0.30;;
47519;SDS011;33252;48.122;11.538;2022-12-29T13:11:41;2.53;;;0.50;;
47519;SDS011;33252;48.122;11.538;2022-12-29T13:14:24;0.95;;;0.50;;
47519;SDS011;33252;48.122;11.538;2022-12-29T13:17:07;2.00;;;0.43;;
47519;SDS011;33252;48.122;11.538;2022-12-29T13:19:48;1.08;;;0.30;;
47519;SDS011;33252;48.122;11.538;2022-12-29T13:25:27;0.90;;;0.40;;
47519;SDS011;33252;48.122;11.538;2022-12-29T13:36:43;2.53;;;0.63;;
47519;SDS011;33252;48.122;11.538;2022-12-29T13:39:15;0.85;;;0.40;;
47519;SDS011;33252;48.122;11.538;2022-12-29T13:41:49;1.38;;;0.43;;
47519;SDS011;33252;48.122;11.538;2022-12-29T13:44:20;1.48;;;0.50;;
47519;SDS011;33252;48.122;11.538;2022-12-29T13:46:54;1.88;;;0.43;;
47519;SDS011;33252;48.122;11.538;2022-12-29T13:49:23;2.58;;;0.47;;
47519;SDS011;33252;48.122;11.538;2022-12-29T13:51:51;1.08;;;0.45;;
47519;SDS011;33252;48.122;11.538;2022-12-29T14:00:25;2.10;;;0.40;;
47519;SDS011;33252;48.122;11.538;2022-12-29T14:03:11;1.13;;;0.55;;
47519;SDS011;33252;48.122;11.538;2022-12-29T14:06:05;1.25;;;0.57;;
47519;SDS011;33252;48.122;11.538;2022-12-29T14:08:36;1.13;;;0.50;;
47519;SDS011;33252;48.122;11.538;2022-12-29T14:11:05;1.75;;;0.60;;
47519;SDS011;33252;48.122;11.538;2022-12-29T14:16:03;1.65;;;0.60;;
47519;SDS011;33252;48.122;11.538;2022-12-29T14:18:31;1.25;;;0.60;;
47519;SDS011;33252;48.122;11.538;2022-12-29T14:23:49;2.55;;;0.60;;
47519;SDS011;33252;48.122;11.538;2022-12-29T14:26:37;2.15;;;0.55;;
47519;SDS011;33252;48.122;11.538;2022-12-29T14:29:41;2.30;;;0.63;;
47519;SDS011;33252;48.122;11.538;2022-12-29T14:31:50;1.30;;;0.50;;
47519;SDS011;33252;48.122;11.538;2022-12-29T14:36:55;1.63;;;0.82;;
47519;SDS011;33252;48.122;11.538;2022-12-29T14:42:14;2.17;;;0.80;;
47519;SDS011;33252;48.122;11.538;2022-12-29T14:52:31;3.25;;;1.42;;
47519;SDS011;33252;48.122;11.538;2022-12-29T14:54:58;1.67;;;1.00;;
47519;SDS011;33252;48.122;11.538;2022-12-29T14:57:48;2.72;;;1.40;;
47519;SDS011;33252;48.122;11.538;2022-12-29T15:00:35;4.55;;;1.10;;
47519;SDS011;33252;48.122;11.538;2022-12-29T15:03:11;2.33;;;0.95;;
47519;SDS011;33252;48.122;11.538;2022-12-29T15:08:16;2.67;;;1.30;;
47519;SDS011;33252;48.122;11.538;2022-12-29T15:10:49;3.58;;;1.10;;
47519;SDS011;33252;48.122;11.538;2022-12-29T15:15:50;2.70;;;1.60;;
47519;SDS011;33252;48.122;11.538;2022-12-29T15:18:28;2.67;;;1.00;;
47519;SDS011;33252;48.122;11.538;2022-12-29T15:20:59;2.78;;;0.80;;
47519;SDS011;33252;48.122;11.538;2022-12-29T15:23:30;5.20;;;1.00;;
47519;SDS011;33252;48.122;11.538;2022-12-29T15:26:00;2.25;;;1.30;;
47519;SDS011;33252;48.122;11.538;2022-12-29T15:28:36;2.30;;;0.95;;
47519;SDS011;33252;48.122;11.538;2022-12-29T15:31:04;1.65;;;0.77;;
47519;SDS011;33252;48.122;11.538;2022-12-29T15:33:31;2.53;;;0.95;;
47519;SDS011;33252;48.122;11.538;2022-12-29T15:36:02;2.80;;;1.40;;
47519;SDS011;33252;48.122;11.538;2022-12-29T15:38:29;2.97;;;1.42;;
47519;SDS011;33252;48.122;11.538;2022-12-29T15:41:43;2.47;;;1.25;;
47519;SDS011;33252;48.122;11.538;2022-12-29T15:46:18;2.17;;;1.10;;
47519;SDS011;33252;48.122;11.538;2022-12-29T15:48:45;2.40;;;0.98;;
47519;SDS011;33252;48.122;11.538;2022-12-29T15:51:18;2.45;;;1.33;;
47519;SDS011;33252;48.122;11.538;2022-12-29T15:53:48;2.08;;;1.60;;
47519;SDS011;33252;48.122;11.538;2022-12-29T15:56:16;3.05;;;1.48;;
47519;SDS011;33252;48.122;11.538;2022-12-29T15:58:44;2.20;;;1.13;;
47519;SDS011;33252;48.122;11.538;2022-12-29T16:01:27;4.95;;;1.30;;
47519;SDS011;33252;48.122;11.538;2022-12-29T16:04:03;1.95;;;0.98;;
47519;SDS011;33252;48.122;11.538;2022-12-29T16:06:35;3.47;;;1.13;;
47519;SDS011;33252;48.122;11.538;2022-12-29T16:09:03;5.53;;;1.15;;
47519;SDS011;33252;48.122;11.538;2022-12-29T16:14:18;5.45;;;1.55;;
47519;SDS011;33252;48.122;11.538;2022-12-29T16:16:48;4.20;;;1.77;;
47519;SDS011;33252;48.122;11.538;2022-12-29T16:19:23;3.65;;;1.40;;
47519;SDS011;33252;48.122;11.538;2022-12-29T16:21:53;3.92;;;1.20;;
47519;SDS011;33252;48.122;11.538;2022-12-29T16:24:20;4.57;;;1.23;;
47519;SDS011;33252;48.122;11.538;2022-12-29T16:26:50;3.25;;;1.30;;
47519;SDS011;33252;48.122;11.538;2022-12-29T16:29:23;2.95;;;1.27;;
47519;SDS011;33252;48.122;11.538;2022-12-29T16:31:50;1.95;;;1.02;;
47519;SDS011;33252;48.122;11.538;2022-12-29T16:34:25;2.47;;;1.00;;
47519;SDS011;33252;48.122;11.538;2022-12-29T16:37:24;2.35;;;1.40;;
47519;SDS011;33252;48.122;11.538;2022-12-29T16:39:55;6.20;;;2.53;;
47519;SDS011;33252;48.122;11.538;2022-12-29T16:42:45;2.60;;;1.50;;
47519;SDS011;33252;48.122;11.538;2022-12-29T16:47:43;6.45;;;1.35;;
47519;SDS011;33252;48.122;11.538;2022-12-29T16:50:11;3.55;;;1.40;;
47519;SDS011;33252;48.122;11.538;2022-12-29T16:52:41;2.55;;;0.90;;
47519;SDS011;33252;48.122;11.538;2022-12-29T16:55:14;2.00;;;0.82;;
47519;SDS011;33252;48.122;11.538;2022-12-29T16:57:42;2.35;;;1.00;;
47519;SDS011;33252;48.122;11.538;2022-12-29T17:00:22;2.50;;;1.00;;
47519;SDS011;33252;48.122;11.538;2022-12-29T17:02:50;4.40;;;1.00;;
47519;SDS011;33252;48.122;11.538;2022-12-29T17:05:19;2.90;;;1.42;;
47519;SDS011;33252;48.122;11.538;2022-12-29T17:07:45;2.88;;;2.13;;
47519;SDS011;33252;48.122;11.538;2022-12-29T17:10:11;1.95;;;1.08;;
47519;SDS011;33252;48.122;11.538;2022-12-29T17:12:42;2.88;;;1.10;;
47519;SDS011;33252;48.122;11.538;2022-12-29T17:17:51;2.40;;;1.58;;
47519;SDS011;33252;48.122;11.538;2022-12-29T17:20:23;4.22;;;1.42;;